sensor_id;sensor_type;location;lat;lon;timestamp;pressure;altitude;pressure_sealevel;temperature;humidity
22964;BME280;11648;49.306;6.934;2023-04-25T00:01:47;97864.44;;;12.39;73.91
22964;BME280;11648;49.306;6.934;2023-04-25T00:04:14;97848.91;;;12.29;73.56
22964;BME280;11648;49.306;6.934;2023-04-25T00:06:42;97852.09;;;12.40;73.65
22964;BME280;11648;49.306;6.934;2023-04-25T00:09:09;97846.75;;;12.43;73.68
22964;BME280;11648;49.306;6.934;2023-04-25T00:11:37;97841.53;;;12.42;73.09
22964;BME280;11648;49.306;6.934;2023-04-25T00:14:04;97833.50;;;12.45;73.27
22964;BME280;11648;49.306;6.934;2023-04-25T00:16:31;97836.03;;;12.49;73.26
22964;BME280;11648;49.306;6.934;2023-04-25T00:19:01;97837.03;;;12.45;72.83
22964;BME280;11648;49.306;6.934;2023-04-25T00:21:29;97842.28;;;12.45;72.84
22964;BME280;11648;49.306;6.934;2023-04-25T00:23:58;97838.13;;;12.36;72.78
22964;BME280;11648;49.306;6.934;2023-04-25T00:26:24;97842.53;;;12.36;73.00
22964;BME280;11648;49.306;6.934;2023-04-25T00:28:51;97843.47;;;12.35;72.83
22964;BME280;11648;49.306;6.934;2023-04-25T00:31:18;97837.34;;;12.33;72.59
22964;BME280;11648;49.306;6.934;2023-04-25T00:33:45;97846.31;;;12.27;72.20
22964;BME280;11648;49.306;6.934;2023-04-25T00:36:12;97833.28;;;12.21;72.43
22964;BME280;11648;49.306;6.934;2023-04-25T00:38:39;97831.72;;;12.14;72.48
22964;BME280;11648;49.306;6.934;2023-04-25T00:41:07;97834.59;;;12.07;72.53
22964;BME280;11648;49.306;6.934;2023-04-25T00:43:36;97834.91;;;11.95;72.85
22964;BME280;11648;49.306;6.934;2023-04-25T00:46:03;97839.06;;;12.03;72.89
22964;BME280;11648;49.306;6.934;2023-04-25T00:48:29;97837.13;;;12.10;73.04
22964;BME280;11648;49.306;6.934;2023-04-25T00:50:58;97829.59;;;11.96;72.43
22964;BME280;11648;49.306;6.934;2023-04-25T00:53:27;97832.47;;;11.85;73.24
22964;BME280;11648;49.306;6.934;2023-04-25T00:55:54;97835.34;;;11.78;73.63
22964;BME280;11648;49.306;6.934;2023-04-25T00:58:21;97829.81;;;11.87;73.97
22964;BME280;11648;49.306;6.934;2023-04-25T01:00:50;97829.50;;;11.99;73.35
22964;BME280;11648;49.306;6.934;2023-04-25T01:03:18;97814.78;;;11.91;72.87
22964;BME280;11648;49.306;6.934;2023-04-25T01:05:49;97824.31;;;11.96;72.78
22964;BME280;11648;49.306;6.934;2023-04-25T01:08:17;97822.59;;;11.94;72.63
22964;BME280;11648;49.306;6.934;2023-04-25T01:10:44;97818.50;;;11.82;72.95
22964;BME280;11648;49.306;6.934;2023-04-25T01:13:10;97812.44;;;11.78;73.75
22964;BME280;11648;49.306;6.934;2023-04-25T01:15:37;97810.47;;;11.86;73.46
22964;BME280;11648;49.306;6.934;2023-04-25T01:18:05;97807.16;;;11.80;72.81
22964;BME280;11648;49.306;6.934;2023-04-25T01:20:33;97808.81;;;11.84;72.84
22964;BME280;11648;49.306;6.934;2023-04-25T01:23:00;97806.19;;;11.82;72.14
22964;BME280;11648;49.306;6.934;2023-04-25T01:25:30;97805.09;;;11.91;72.84
22964;BME280;11648;49.306;6.934;2023-04-25T01:27:58;97800.84;;;11.85;72.65
22964;BME280;11648;49.306;6.934;2023-04-25T01:30:28;97805.56;;;11.73;72.53
22964;BME280;11648;49.306;6.934;2023-04-25T01:32:55;97811.28;;;11.90;72.24
22964;BME280;11648;49.306;6.934;2023-04-25T01:35:23;97809.88;;;11.77;72.73
22964;BME280;11648;49.306;6.934;2023-04-25T01:37:53;97810.66;;;11.45;73.16
22964;BME280;11648;49.306;6.934;2023-04-25T01:40:21;97808.72;;;11.52;73.39
22964;BME280;11648;49.306;6.934;2023-04-25T01:42:50;97814.72;;;11.57;73.16
22964;BME280;11648;49.306;6.934;2023-04-25T01:45:18;97818.31;;;11.19;74.58
22964;BME280;11648;49.306;6.934;2023-04-25T01:47:44;97808.41;;;11.30;74.06
22964;BME280;11648;49.306;6.934;2023-04-25T01:50:17;97806.72;;;11.61;73.09
22964;BME280;11648;49.306;6.934;2023-04-25T01:52:44;97807.94;;;11.48;73.10
22964;BME280;11648;49.306;6.934;2023-04-25T01:55:11;97799.00;;;11.54;72.75
22964;BME280;11648;49.306;6.934;2023-04-25T01:57:45;97797.75;;;11.68;72.41
22964;BME280;11648;49.306;6.934;2023-04-25T02:00:12;97796.81;;;11.35;72.86
22964;BME280;11648;49.306;6.934;2023-04-25T02:02:39;97802.69;;;11.47;72.69
22964;BME280;11648;49.306;6.934;2023-04-25T02:05:19;97802.22;;;11.65;72.35
22964;BME280;11648;49.306;6.934;2023-04-25T02:07:47;97804.97;;;11.60;72.26
22964;BME280;11648;49.306;6.934;2023-04-25T02:10:14;97808.13;;;11.76;72.26
22964;BME280;11648;49.306;6.934;2023-04-25T02:12:54;97806.09;;;11.87;71.88
22964;BME280;11648;49.306;6.934;2023-04-25T02:15:39;97803.34;;;11.90;71.51
22964;BME280;11648;49.306;6.934;2023-04-25T02:18:14;97799.75;;;11.94;71.59
22964;BME280;11648;49.306;6.934;2023-04-25T02:20:43;97800.00;;;11.85;71.60
22964;BME280;11648;49.306;6.934;2023-04-25T02:23:10;97800.13;;;11.79;71.61
22964;BME280;11648;49.306;6.934;2023-04-25T02:25:37;97799.25;;;11.78;71.77
22964;BME280;11648;49.306;6.934;2023-04-25T02:28:04;97803.47;;;11.52;72.40
22964;BME280;11648;49.306;6.934;2023-04-25T02:30:31;97799.78;;;11.57;72.46
22964;BME280;11648;49.306;6.934;2023-04-25T02:32:57;97797.50;;;11.44;73.31
22964;BME280;11648;49.306;6.934;2023-04-25T02:35:24;97805.06;;;11.57;72.96
22964;BME280;11648;49.306;6.934;2023-04-25T02:37:53;97806.63;;;11.64;72.49
22964;BME280;11648;49.306;6.934;2023-04-25T02:40:20;97808.28;;;11.70;71.92
22964;BME280;11648;49.306;6.934;2023-04-25T02:42:46;97806.38;;;11.76;71.97
22964;BME280;11648;49.306;6.934;2023-04-25T02:45:13;97799.59;;;11.65;71.75
22964;BME280;11648;49.306;6.934;2023-04-25T02:47:40;97796.41;;;11.52;71.85
22964;BME280;11648;49.306;6.934;2023-04-25T02:50:07;97795.09;;;11.68;71.27
22964;BME280;11648;49.306;6.934;2023-04-25T02:52:34;97789.38;;;11.86;70.89
22964;BME280;11648;49.306;6.934;2023-04-25T02:55:09;97783.38;;;11.81;71.04
22964;BME280;11648;49.306;6.934;2023-04-25T02:57:37;97781.47;;;11.86;70.89
22964;BME280;11648;49.306;6.934;2023-04-25T03:00:04;97783.25;;;11.86;70.82
22964;BME280;11648;49.306;6.934;2023-04-25T03:02:32;97780.53;;;11.89;71.04
22964;BME280;11648;49.306;6.934;2023-04-25T03:04:58;97778.03;;;11.84;71.33
22964;BME280;11648;49.306;6.934;2023-04-25T03:07:26;97777.19;;;11.82;71.43
22964;BME280;11648;49.306;6.934;2023-04-25T03:09:53;97776.59;;;11.71;71.86
22964;BME280;11648;49.306;6.934;2023-04-25T03:12:19;97776.06;;;11.57;72.25
22964;BME280;11648;49.306;6.934;2023-04-25T03:14:46;97770.97;;;11.51;72.56
22964;BME280;11648;49.306;6.934;2023-04-25T03:17:14;97768.31;;;11.53;72.76
22964;BME280;11648;49.306;6.934;2023-04-25T03:19:41;97771.91;;;11.49;72.57
22964;BME280;11648;49.306;6.934;2023-04-25T03:22:07;97769.81;;;11.61;72.76
22964;BME280;11648;49.306;6.934;2023-04-25T03:24:34;97767.19;;;11.61;72.79
22964;BME280;11648;49.306;6.934;2023-04-25T03:27:01;97773.81;;;11.77;72.64
22964;BME280;11648;49.306;6.934;2023-04-25T03:29:28;97769.47;;;11.75;72.28
22964;BME280;11648;49.306;6.934;2023-04-25T03:31:55;97779.00;;;11.80;71.92
22964;BME280;11648;49.306;6.934;2023-04-25T03:34:22;97785.78;;;11.89;71.92
22964;BME280;11648;49.306;6.934;2023-04-25T03:36:50;97782.84;;;12.01;71.90
22964;BME280;11648;49.306;6.934;2023-04-25T03:39:17;97780.97;;;12.05;71.53
22964;BME280;11648;49.306;6.934;2023-04-25T03:41:48;97777.09;;;11.85;71.81
22964;BME280;11648;49.306;6.934;2023-04-25T03:44:16;97782.53;;;11.81;71.71
22964;BME280;11648;49.306;6.934;2023-04-25T03:46:43;97783.91;;;11.94;71.60
22964;BME280;11648;49.306;6.934;2023-04-25T03:49:10;97788.50;;;11.87;71.71
22964;BME280;11648;49.306;6.934;2023-04-25T03:52:09;97786.53;;;11.96;71.62
22964;BME280;11648;49.306;6.934;2023-04-25T03:54:39;97788.22;;;11.97;71.27
22964;BME280;11648;49.306;6.934;2023-04-25T03:57:10;97782.03;;;11.99;71.30
22964;BME280;11648;49.306;6.934;2023-04-25T03:59:38;97789.84;;;12.02;71.71
22964;BME280;11648;49.306;6.934;2023-04-25T04:02:07;97788.78;;;12.09;71.76
22964;BME280;11648;49.306;6.934;2023-04-25T04:04:35;97790.50;;;12.10;71.43
22964;BME280;11648;49.306;6.934;2023-04-25T04:07:03;97792.06;;;12.17;71.62
22964;BME280;11648;49.306;6.934;2023-04-25T04:09:34;97788.50;;;12.18;71.20
22964;BME280;11648;49.306;6.934;2023-04-25T04:12:05;97786.69;;;12.20;70.97
22964;BME280;11648;49.306;6.934;2023-04-25T04:14:33;97791.81;;;12.25;70.86
22964;BME280;11648;49.306;6.934;2023-04-25T04:16:59;97792.00;;;12.19;71.38
22964;BME280;11648;49.306;6.934;2023-04-25T04:19:27;97787.56;;;12.21;71.75
22964;BME280;11648;49.306;6.934;2023-04-25T04:22:04;97796.09;;;12.30;71.29
22964;BME280;11648;49.306;6.934;2023-04-25T04:24:31;97800.50;;;12.30;71.38
22964;BME280;11648;49.306;6.934;2023-04-25T04:27:01;97796.56;;;12.14;71.60
22964;BME280;11648;49.306;6.934;2023-04-25T04:29:33;97794.06;;;12.08;71.59
22964;BME280;11648;49.306;6.934;2023-04-25T04:32:09;97795.69;;;12.13;71.33
22964;BME280;11648;49.306;6.934;2023-04-25T04:34:36;97795.63;;;12.15;71.71
22964;BME280;11648;49.306;6.934;2023-04-25T04:37:03;97797.28;;;12.19;72.00
22964;BME280;11648;49.306;6.934;2023-04-25T04:39:29;97791.88;;;12.23;71.48
22964;BME280;11648;49.306;6.934;2023-04-25T04:42:13;97791.44;;;12.08;71.62
22964;BME280;11648;49.306;6.934;2023-04-25T04:45:12;97788.38;;;11.92;72.18
22964;BME280;11648;49.306;6.934;2023-04-25T04:47:46;97785.44;;;12.03;72.23
22964;BME280;11648;49.306;6.934;2023-04-25T04:50:28;97793.84;;;12.17;71.23
22964;BME280;11648;49.306;6.934;2023-04-25T04:53:11;97796.59;;;12.12;72.34
22964;BME280;11648;49.306;6.934;2023-04-25T04:56:00;97799.94;;;12.19;72.07
22964;BME280;11648;49.306;6.934;2023-04-25T04:58:34;97811.31;;;12.21;72.06
22964;BME280;11648;49.306;6.934;2023-04-25T05:01:18;97817.53;;;12.18;72.20
22964;BME280;11648;49.306;6.934;2023-04-25T05:04:05;97816.91;;;12.10;72.54
22964;BME280;11648;49.306;6.934;2023-04-25T05:06:47;97815.09;;;12.11;72.19
22964;BME280;11648;49.306;6.934;2023-04-25T05:09:33;97818.69;;;12.08;72.59
22964;BME280;11648;49.306;6.934;2023-04-25T05:12:32;97819.38;;;12.15;72.49
22964;BME280;11648;49.306;6.934;2023-04-25T05:15:07;97819.25;;;12.21;72.29
22964;BME280;11648;49.306;6.934;2023-04-25T05:18:12;97832.28;;;12.25;72.39
22964;BME280;11648;49.306;6.934;2023-04-25T05:20:45;97833.78;;;12.35;72.53
22964;BME280;11648;49.306;6.934;2023-04-25T05:23:33;97832.81;;;12.38;72.19
22964;BME280;11648;49.306;6.934;2023-04-25T05:26:08;97843.31;;;12.39;72.01
22964;BME280;11648;49.306;6.934;2023-04-25T05:28:52;97843.28;;;12.41;71.87
22964;BME280;11648;49.306;6.934;2023-04-25T05:31:33;97840.69;;;12.39;72.27
22964;BME280;11648;49.306;6.934;2023-04-25T05:34:05;97838.81;;;12.43;72.07
22964;BME280;11648;49.306;6.934;2023-04-25T05:36:43;97848.66;;;12.38;71.70
22964;BME280;11648;49.306;6.934;2023-04-25T05:39:10;97839.84;;;12.39;72.08
22964;BME280;11648;49.306;6.934;2023-04-25T05:41:55;97846.91;;;12.37;72.42
22964;BME280;11648;49.306;6.934;2023-04-25T05:44:40;97851.97;;;12.46;72.47
22964;BME280;11648;49.306;6.934;2023-04-25T05:47:18;97851.78;;;12.52;72.19
22964;BME280;11648;49.306;6.934;2023-04-25T05:50:01;97849.16;;;12.51;71.86
22964;BME280;11648;49.306;6.934;2023-04-25T05:52:47;97852.72;;;12.50;72.03
22964;BME280;11648;49.306;6.934;2023-04-25T05:55:23;97855.22;;;12.54;72.12
22964;BME280;11648;49.306;6.934;2023-04-25T05:57:50;97855.06;;;12.60;71.86
22964;BME280;11648;49.306;6.934;2023-04-25T06:00:17;97850.66;;;12.61;71.69
22964;BME280;11648;49.306;6.934;2023-04-25T06:02:48;97857.34;;;12.72;71.69
22964;BME280;11648;49.306;6.934;2023-04-25T06:05:15;97858.28;;;12.71;71.59
22964;BME280;11648;49.306;6.934;2023-04-25T06:07:43;97857.88;;;12.83;71.22
22964;BME280;11648;49.306;6.934;2023-04-25T06:10:11;97861.59;;;12.78;71.05
22964;BME280;11648;49.306;6.934;2023-04-25T06:12:37;97864.06;;;12.82;71.37
22964;BME280;11648;49.306;6.934;2023-04-25T06:15:05;97864.00;;;12.85;71.04
22964;BME280;11648;49.306;6.934;2023-04-25T06:17:52;97866.91;;;12.76;71.39
22964;BME280;11648;49.306;6.934;2023-04-25T06:20:19;97863.41;;;12.76;71.46
22964;BME280;11648;49.306;6.934;2023-04-25T06:22:51;97874.38;;;12.62;71.74
22964;BME280;11648;49.306;6.934;2023-04-25T06:25:20;97874.91;;;12.75;71.80
22964;BME280;11648;49.306;6.934;2023-04-25T06:27:47;97874.50;;;12.87;70.97
22964;BME280;11648;49.306;6.934;2023-04-25T06:30:14;97877.28;;;12.82;70.72
22964;BME280;11648;49.306;6.934;2023-04-25T06:32:42;97881.63;;;12.85;70.03
22964;BME280;11648;49.306;6.934;2023-04-25T06:35:09;97875.81;;;13.03;69.54
22964;BME280;11648;49.306;6.934;2023-04-25T06:37:36;97885.69;;;13.26;68.99
22964;BME280;11648;49.306;6.934;2023-04-25T06:40:05;97881.59;;;13.16;68.83
22964;BME280;11648;49.306;6.934;2023-04-25T06:42:32;97879.84;;;13.44;68.66
22964;BME280;11648;49.306;6.934;2023-04-25T06:45:03;97888.25;;;13.57;67.52
22964;BME280;11648;49.306;6.934;2023-04-25T06:47:30;97884.78;;;13.82;67.53
22964;BME280;11648;49.306;6.934;2023-04-25T06:49:58;97892.19;;;13.98;66.22
22964;BME280;11648;49.306;6.934;2023-04-25T06:52:25;97889.03;;;14.13;65.67
22964;BME280;11648;49.306;6.934;2023-04-25T06:54:53;97888.34;;;14.08;65.38
22964;BME280;11648;49.306;6.934;2023-04-25T06:57:41;97894.81;;;14.24;65.21
22964;BME280;11648;49.306;6.934;2023-04-25T07:00:27;97890.75;;;14.14;64.50
22964;BME280;11648;49.306;6.934;2023-04-25T07:02:55;97902.03;;;14.19;64.10
22964;BME280;11648;49.306;6.934;2023-04-25T07:05:22;97906.41;;;14.20;64.30
22964;BME280;11648;49.306;6.934;2023-04-25T07:07:49;97905.63;;;14.18;64.81
22964;BME280;11648;49.306;6.934;2023-04-25T07:10:16;97914.69;;;14.11;64.38
22964;BME280;11648;49.306;6.934;2023-04-25T07:12:43;97915.09;;;14.25;64.50
22964;BME280;11648;49.306;6.934;2023-04-25T07:15:10;97906.00;;;14.32;64.56
22964;BME280;11648;49.306;6.934;2023-04-25T07:17:40;97917.94;;;14.45;63.84
22964;BME280;11648;49.306;6.934;2023-04-25T07:20:07;97919.78;;;14.68;63.41
22964;BME280;11648;49.306;6.934;2023-04-25T07:22:35;97917.31;;;15.10;62.32
22964;BME280;11648;49.306;6.934;2023-04-25T07:25:03;97918.44;;;15.04;61.20
22964;BME280;11648;49.306;6.934;2023-04-25T07:27:31;97920.88;;;15.09;60.93
22964;BME280;11648;49.306;6.934;2023-04-25T07:30:07;97928.47;;;15.19;60.54
22964;BME280;11648;49.306;6.934;2023-04-25T07:32:34;97927.84;;;14.88;61.46
22964;BME280;11648;49.306;6.934;2023-04-25T07:35:02;97928.59;;;14.92;62.54
22964;BME280;11648;49.306;6.934;2023-04-25T07:37:29;97929.00;;;14.81;61.66
22964;BME280;11648;49.306;6.934;2023-04-25T07:40:10;97925.28;;;14.87;62.02
22964;BME280;11648;49.306;6.934;2023-04-25T07:42:42;97939.03;;;14.22;64.20
22964;BME280;11648;49.306;6.934;2023-04-25T07:45:10;97932.41;;;14.35;64.62
22964;BME280;11648;49.306;6.934;2023-04-25T07:47:38;97932.69;;;14.52;64.83
22964;BME280;11648;49.306;6.934;2023-04-25T07:50:06;97941.00;;;14.66;63.87
22964;BME280;11648;49.306;6.934;2023-04-25T07:52:33;97946.00;;;14.75;64.22
22964;BME280;11648;49.306;6.934;2023-04-25T07:55:08;97947.06;;;14.70;63.60
22964;BME280;11648;49.306;6.934;2023-04-25T07:57:50;97945.66;;;14.60;63.10
22964;BME280;11648;49.306;6.934;2023-04-25T08:00:17;97954.25;;;14.66;63.25
22964;BME280;11648;49.306;6.934;2023-04-25T08:02:50;97960.97;;;15.01;62.71
22964;BME280;11648;49.306;6.934;2023-04-25T08:05:17;97955.41;;;15.30;61.33
22964;BME280;11648;49.306;6.934;2023-04-25T08:07:53;97957.41;;;15.25;61.85
22964;BME280;11648;49.306;6.934;2023-04-25T08:10:20;97959.63;;;15.36;61.81
22964;BME280;11648;49.306;6.934;2023-04-25T08:12:47;97965.69;;;15.40;61.21
22964;BME280;11648;49.306;6.934;2023-04-25T08:15:14;97970.13;;;15.39;60.35
22964;BME280;11648;49.306;6.934;2023-04-25T08:17:41;97966.78;;;15.34;59.27
22964;BME280;11648;49.306;6.934;2023-04-25T08:20:11;97972.78;;;15.39;59.64
22964;BME280;11648;49.306;6.934;2023-04-25T08:22:39;97977.69;;;15.26;60.06
22964;BME280;11648;49.306;6.934;2023-04-25T08:25:26;97986.09;;;15.14;61.29
22964;BME280;11648;49.306;6.934;2023-04-25T08:27:53;97977.84;;;14.74;61.65
22964;BME280;11648;49.306;6.934;2023-04-25T08:30:21;97983.50;;;14.88;62.05
22964;BME280;11648;49.306;6.934;2023-04-25T08:32:49;97990.31;;;14.46;63.05
22964;BME280;11648;49.306;6.934;2023-04-25T08:35:29;97999.38;;;14.65;62.29
22964;BME280;11648;49.306;6.934;2023-04-25T08:37:56;97996.16;;;14.80;62.24
22964;BME280;11648;49.306;6.934;2023-04-25T08:40:26;98003.81;;;14.63;61.48
22964;BME280;11648;49.306;6.934;2023-04-25T08:43:01;98001.53;;;14.78;61.40
22964;BME280;11648;49.306;6.934;2023-04-25T08:45:31;97999.22;;;14.94;61.17
22964;BME280;11648;49.306;6.934;2023-04-25T08:47:58;98003.94;;;14.60;62.03
22964;BME280;11648;49.306;6.934;2023-04-25T08:50:25;98011.38;;;15.00;62.01
22964;BME280;11648;49.306;6.934;2023-04-25T08:52:53;98016.44;;;15.06;61.67
22964;BME280;11648;49.306;6.934;2023-04-25T08:55:21;98014.69;;;15.29;61.14
22964;BME280;11648;49.306;6.934;2023-04-25T08:57:54;98022.81;;;15.48;60.47
22964;BME280;11648;49.306;6.934;2023-04-25T09:00:22;98018.09;;;15.58;58.52
22964;BME280;11648;49.306;6.934;2023-04-25T09:02:49;98020.31;;;15.68;58.77
22964;BME280;11648;49.306;6.934;2023-04-25T09:05:17;98028.00;;;15.76;58.79
22964;BME280;11648;49.306;6.934;2023-04-25T09:07:50;98036.53;;;15.61;58.64
22964;BME280;11648;49.306;6.934;2023-04-25T09:10:16;98030.63;;;16.21;58.59
22964;BME280;11648;49.306;6.934;2023-04-25T09:12:43;98034.38;;;16.81;56.36
22964;BME280;11648;49.306;6.934;2023-04-25T09:15:12;98030.50;;;16.67;56.14
22964;BME280;11648;49.306;6.934;2023-04-25T09:18:02;98034.19;;;17.05;55.38
22964;BME280;11648;49.306;6.934;2023-04-25T09:20:41;98030.66;;;17.64;52.88
22964;BME280;11648;49.306;6.934;2023-04-25T09:23:26;98022.44;;;19.79;48.98
22964;BME280;11648;49.306;6.934;2023-04-25T09:25:53;98021.94;;;19.88;46.31
22964;BME280;11648;49.306;6.934;2023-04-25T09:28:24;98029.59;;;19.79;47.18
22964;BME280;11648;49.306;6.934;2023-04-25T09:30:57;98032.00;;;19.33;47.84
22964;BME280;11648;49.306;6.934;2023-04-25T09:33:33;98046.63;;;19.60;49.20
22964;BME280;11648;49.306;6.934;2023-04-25T09:36:08;98033.22;;;20.09;47.90
22964;BME280;11648;49.306;6.934;2023-04-25T09:38:59;98041.34;;;20.23;47.21
22964;BME280;11648;49.306;6.934;2023-04-25T09:41:29;98049.56;;;19.71;48.17
22964;BME280;11648;49.306;6.934;2023-04-25T09:43:59;98062.19;;;19.18;48.55
22964;BME280;11648;49.306;6.934;2023-04-25T09:46:34;98058.28;;;19.91;48.10
22964;BME280;11648;49.306;6.934;2023-04-25T09:49:07;98045.47;;;21.49;44.99
22964;BME280;11648;49.306;6.934;2023-04-25T09:52:00;98036.03;;;21.44;42.85
22964;BME280;11648;49.306;6.934;2023-04-25T09:54:53;98044.03;;;21.30;43.86
22964;BME280;11648;49.306;6.934;2023-04-25T09:57:27;98036.59;;;22.20;41.20
22964;BME280;11648;49.306;6.934;2023-04-25T09:59:56;98038.72;;;22.55;40.82
22964;BME280;11648;49.306;6.934;2023-04-25T10:02:28;98038.34;;;21.92;41.16
22964;BME280;11648;49.306;6.934;2023-04-25T10:05:02;98042.38;;;21.27;41.62
22964;BME280;11648;49.306;6.934;2023-04-25T10:07:38;98037.88;;;20.68;42.35
22964;BME280;11648;49.306;6.934;2023-04-25T10:10:12;98040.13;;;21.49;41.06
22964;BME280;11648;49.306;6.934;2023-04-25T10:12:39;98035.44;;;22.09;40.27
22964;BME280;11648;49.306;6.934;2023-04-25T10:15:08;98041.38;;;21.58;40.93
22964;BME280;11648;49.306;6.934;2023-04-25T10:17:35;98034.78;;;21.49;39.73
22964;BME280;11648;49.306;6.934;2023-04-25T10:20:02;98028.03;;;23.59;37.25
22964;BME280;11648;49.306;6.934;2023-04-25T10:22:38;98001.63;;;26.34;33.33
22964;BME280;11648;49.306;6.934;2023-04-25T10:25:06;97982.53;;;27.83;29.59
22964;BME280;11648;49.306;6.934;2023-04-25T10:27:34;97977.56;;;28.28;29.31
22964;BME280;11648;49.306;6.934;2023-04-25T10:30:08;97986.53;;;28.19;29.04
22964;BME280;11648;49.306;6.934;2023-04-25T10:32:37;97982.31;;;29.61;26.52
22964;BME280;11648;49.306;6.934;2023-04-25T10:35:14;97994.09;;;30.98;26.09
22964;BME280;11648;49.306;6.934;2023-04-25T10:40:25;97979.59;;;33.02;22.43
22964;BME280;11648;49.306;6.934;2023-04-25T10:42:53;97989.03;;;33.48;21.41
22964;BME280;11648;49.306;6.934;2023-04-25T10:45:21;97989.97;;;34.89;20.96
22964;BME280;11648;49.306;6.934;2023-04-25T10:47:48;98003.25;;;34.69;21.19
22964;BME280;11648;49.306;6.934;2023-04-25T10:50:15;98024.09;;;32.86;22.49
22964;BME280;11648;49.306;6.934;2023-04-25T10:52:45;98024.94;;;30.34;23.79
22964;BME280;11648;49.306;6.934;2023-04-25T10:55:12;98031.31;;;29.50;25.06
22964;BME280;11648;49.306;6.934;2023-04-25T10:57:44;98036.44;;;30.55;25.65
22964;BME280;11648;49.306;6.934;2023-04-25T11:00:17;98031.19;;;30.71;24.22
22964;BME280;11648;49.306;6.934;2023-04-25T11:02:52;98039.69;;;30.31;24.73
22964;BME280;11648;49.306;6.934;2023-04-25T11:07:55;98047.84;;;28.70;26.40
22964;BME280;11648;49.306;6.934;2023-04-25T11:10:34;98050.59;;;28.49;26.40
22964;BME280;11648;49.306;6.934;2023-04-25T11:13:04;98042.16;;;29.59;26.09
22964;BME280;11648;49.306;6.934;2023-04-25T11:15:33;98036.41;;;29.91;24.93
22964;BME280;11648;49.306;6.934;2023-04-25T11:18:00;98043.28;;;28.99;25.12
22964;BME280;11648;49.306;6.934;2023-04-25T11:20:27;98040.94;;;27.13;27.35
22964;BME280;11648;49.306;6.934;2023-04-25T11:22:57;98062.19;;;25.63;29.71
22964;BME280;11648;49.306;6.934;2023-04-25T11:25:25;98065.69;;;24.70;31.39
22964;BME280;11648;49.306;6.934;2023-04-25T11:27:53;98077.25;;;23.73;32.33
22964;BME280;11648;49.306;6.934;2023-04-25T11:30:20;98071.06;;;22.67;32.95
22964;BME280;11648;49.306;6.934;2023-04-25T11:32:48;98089.03;;;21.67;35.28
22964;BME280;11648;49.306;6.934;2023-04-25T11:35:15;98088.69;;;21.29;36.39
22964;BME280;11648;49.306;6.934;2023-04-25T11:37:43;98101.34;;;20.80;37.38
22964;BME280;11648;49.306;6.934;2023-04-25T11:40:10;98106.16;;;20.44;37.72
22964;BME280;11648;49.306;6.934;2023-04-25T11:42:47;98116.75;;;19.97;39.64
22964;BME280;11648;49.306;6.934;2023-04-25T11:45:15;98125.75;;;20.27;40.81
22964;BME280;11648;49.306;6.934;2023-04-25T11:47:42;98116.44;;;20.18;39.22
22964;BME280;11648;49.306;6.934;2023-04-25T11:50:09;98116.69;;;20.14;40.59
22964;BME280;11648;49.306;6.934;2023-04-25T11:52:41;98120.03;;;20.02;40.41
22964;BME280;11648;49.306;6.934;2023-04-25T11:55:09;98118.09;;;19.88;40.41
22964;BME280;11648;49.306;6.934;2023-04-25T11:57:38;98114.91;;;19.82;41.53
22964;BME280;11648;49.306;6.934;2023-04-25T12:00:26;98120.81;;;19.71;41.68
22964;BME280;11648;49.306;6.934;2023-04-25T12:02:54;98120.78;;;19.88;40.02
22964;BME280;11648;49.306;6.934;2023-04-25T12:05:27;98121.63;;;19.89;39.87
22964;BME280;11648;49.306;6.934;2023-04-25T12:08:15;98115.97;;;20.28;39.79
22964;BME280;11648;49.306;6.934;2023-04-25T12:10:45;98126.22;;;20.66;38.94
22964;BME280;11648;49.306;6.934;2023-04-25T12:13:26;98117.31;;;20.97;37.64
22964;BME280;11648;49.306;6.934;2023-04-25T12:15:54;98113.28;;;20.90;36.68
22964;BME280;11648;49.306;6.934;2023-04-25T12:18:23;98108.66;;;21.08;36.36
22964;BME280;11648;49.306;6.934;2023-04-25T12:20:52;98110.63;;;21.20;38.28
22964;BME280;11648;49.306;6.934;2023-04-25T12:23:26;98123.00;;;20.91;37.58
22964;BME280;11648;49.306;6.934;2023-04-25T12:25:54;98138.75;;;20.50;38.59
22964;BME280;11648;49.306;6.934;2023-04-25T12:28:23;98136.78;;;20.21;38.90
22964;BME280;11648;49.306;6.934;2023-04-25T12:30:58;98135.06;;;20.04;38.92
22964;BME280;11648;49.306;6.934;2023-04-25T12:33:26;98128.84;;;20.04;38.07
22964;BME280;11648;49.306;6.934;2023-04-25T12:35:56;98132.38;;;20.04;37.79
22964;BME280;11648;49.306;6.934;2023-04-25T12:38:29;98141.00;;;20.42;37.63
22964;BME280;11648;49.306;6.934;2023-04-25T12:40:58;98140.22;;;20.56;38.33
22964;BME280;11648;49.306;6.934;2023-04-25T12:43:25;98143.84;;;20.39;38.51
22964;BME280;11648;49.306;6.934;2023-04-25T12:45:53;98144.81;;;20.21;39.80
22964;BME280;11648;49.306;6.934;2023-04-25T12:48:21;98147.81;;;19.82;39.27
22964;BME280;11648;49.306;6.934;2023-04-25T12:50:49;98151.31;;;20.00;39.06
22964;BME280;11648;49.306;6.934;2023-04-25T12:53:21;98149.69;;;20.13;39.79
22964;BME280;11648;49.306;6.934;2023-04-25T12:55:48;98150.53;;;20.31;39.01
22964;BME280;11648;49.306;6.934;2023-04-25T12:58:16;98149.09;;;20.41;39.54
22964;BME280;11648;49.306;6.934;2023-04-25T13:00:44;98150.66;;;20.29;39.13
22964;BME280;11648;49.306;6.934;2023-04-25T13:03:11;98155.84;;;19.82;38.74
22964;BME280;11648;49.306;6.934;2023-04-25T13:05:39;98165.22;;;19.03;40.88
22964;BME280;11648;49.306;6.934;2023-04-25T13:08:06;98163.31;;;18.88;41.82
22964;BME280;11648;49.306;6.934;2023-04-25T13:10:33;98167.28;;;18.42;42.30
22964;BME280;11648;49.306;6.934;2023-04-25T13:13:04;98170.94;;;18.21;42.66
22964;BME280;11648;49.306;6.934;2023-04-25T13:15:31;98170.13;;;18.19;42.68
22964;BME280;11648;49.306;6.934;2023-04-25T13:17:58;98166.41;;;18.23;43.28
22964;BME280;11648;49.306;6.934;2023-04-25T13:20:25;98166.97;;;18.30;42.51
22964;BME280;11648;49.306;6.934;2023-04-25T13:22:52;98161.28;;;18.37;41.95
22964;BME280;11648;49.306;6.934;2023-04-25T13:25:18;98160.44;;;18.74;41.85